KTEW

Mason Jewett Field Airport

Mason, Michigan, USA
METAR KTEW 212335Z AUTO 00000KT 10SM CLR 23/15 A2984 RMK AO2 T02250150
Observed Flight Rules
Jun-21 @ 23:35 UTC (21 minutes ago) Visual Flight Rules
Visibility Clouds
10 miles
  • Clear skies
Temperatures Readings
Current 23°C / 73°F
Dewpoint 15°C / 59°F
Humidity 61%
Altimeter 29.84" Hg
Pressure 1010 hPa
Elevation 280
METAR KTEW 212335Z AUTO 00000KT 10SM CLR 23/15 A2984 RMK AO2 T02250150
Observed Flight Rules
Jun-21 @ 23:35 UTC
(21 minutes ago)
VFR
Clouds
  • Clear skies
Temperature Dewpoint
23°C / 73°F 15°C / 59°F
Humidity Altimeter Pressure
61% 29.84" Hg 1010 hPa